Allen's Hourly Summary for Wednesday, March 15, 2017
Hour Temp
(f)
RH
(%)
Solar Rad.
(MJ/m2)
Rainfall
(in)
Wind
(mph)
3/15/2017 12:00 AM 49 48 0 0 2.55
3/15/2017 1:00 AM 47 49 0 0 4.37
3/15/2017 2:00 AM 45 52 0 0 4.07
3/15/2017 3:00 AM 43 55 0 0 3.96
3/15/2017 4:00 AM 44 56 0 0 4.55
3/15/2017 5:00 AM 43 57 0 0 4.68
3/15/2017 6:00 AM 43 60 0 0 4.61
3/15/2017 7:00 AM 42 63 0 0 4.42
3/15/2017 8:00 AM 42 65 0.02 0 4.84
3/15/2017 9:00 AM 42 65 0.19 0 5.28
3/15/2017 10:00 AM 43 64 0.67 0 5.14
3/15/2017 11:00 AM 44 61 1.43 0 5.43
3/15/2017 12:00 PM 46 57 2.24 0 5.24
3/15/2017 1:00 PM 49 53 2.92 0 4.59
3/15/2017 2:00 PM 52 48 2.53 0 4.14
3/15/2017 3:00 PM 55 44 2.81 0 4.47
3/15/2017 4:00 PM 58 42 2.55 0 4.2
3/15/2017 5:00 PM 59 40 1.95 0 3.99
3/15/2017 6:00 PM 60 41 1.16 0 3.66
3/15/2017 7:00 PM 59 44 0.25 0 4.05
3/15/2017 8:00 PM 58 47 0.03 0 3.07
3/15/2017 9:00 PM 55 53 0 0 2.27
3/15/2017 10:00 PM 53 55 0 0 1.75
3/15/2017 11:00 PM 52 60 0 0 1.52
Data Summary 49 53 18.75 0.00 4.04